sensor_id;sensor_type;location;lat;lon;timestamp;temperature;humidity
8778;DHT22;4425;50.872;4.712;2023-05-10T00:01:24;13.60;99.90
8778;DHT22;4425;50.872;4.712;2023-05-10T00:03:51;13.60;99.90
8778;DHT22;4425;50.872;4.712;2023-05-10T00:06:22;13.60;99.90
8778;DHT22;4425;50.872;4.712;2023-05-10T00:08:49;13.60;99.90
8778;DHT22;4425;50.872;4.712;2023-05-10T00:11:18;13.60;99.90
8778;DHT22;4425;50.872;4.712;2023-05-10T00:13:45;13.60;99.90
8778;DHT22;4425;50.872;4.712;2023-05-10T00:16:13;13.60;99.90
8778;DHT22;4425;50.872;4.712;2023-05-10T00:18:40;13.50;99.90
8778;DHT22;4425;50.872;4.712;2023-05-10T00:21:08;13.50;99.90
8778;DHT22;4425;50.872;4.712;2023-05-10T00:23:36;13.60;99.90
8778;DHT22;4425;50.872;4.712;2023-05-10T00:26:03;13.60;99.90
8778;DHT22;4425;50.872;4.712;2023-05-10T00:28:37;13.60;99.90
8778;DHT22;4425;50.872;4.712;2023-05-10T00:31:05;13.60;99.90
8778;DHT22;4425;50.872;4.712;2023-05-10T00:33:34;13.60;99.90
8778;DHT22;4425;50.872;4.712;2023-05-10T00:36:05;13.60;99.90
8778;DHT22;4425;50.872;4.712;2023-05-10T00:38:33;13.60;99.90
8778;DHT22;4425;50.872;4.712;2023-05-10T00:41:00;13.50;99.90
8778;DHT22;4425;50.872;4.712;2023-05-10T00:43:27;13.50;99.90
8778;DHT22;4425;50.872;4.712;2023-05-10T00:45:56;13.60;99.90
8778;DHT22;4425;50.872;4.712;2023-05-10T00:48:24;13.60;99.90
8778;DHT22;4425;50.872;4.712;2023-05-10T00:50:51;13.60;99.90
8778;DHT22;4425;50.872;4.712;2023-05-10T00:53:19;13.50;99.90
8778;DHT22;4425;50.872;4.712;2023-05-10T00:55:47;13.60;99.90
8778;DHT22;4425;50.872;4.712;2023-05-10T00:58:15;13.50;99.90
8778;DHT22;4425;50.872;4.712;2023-05-10T01:00:43;13.50;99.90
8778;DHT22;4425;50.872;4.712;2023-05-10T01:03:15;13.60;99.90
8778;DHT22;4425;50.872;4.712;2023-05-10T01:05:45;13.60;99.90
8778;DHT22;4425;50.872;4.712;2023-05-10T01:08:13;13.60;99.90
8778;DHT22;4425;50.872;4.712;2023-05-10T01:10:41;13.60;99.90
8778;DHT22;4425;50.872;4.712;2023-05-10T01:13:10;13.60;99.90
8778;DHT22;4425;50.872;4.712;2023-05-10T01:15:41;13.60;99.90
8778;DHT22;4425;50.872;4.712;2023-05-10T01:18:08;13.60;99.90
8778;DHT22;4425;50.872;4.712;2023-05-10T01:20:40;13.70;99.90
8778;DHT22;4425;50.872;4.712;2023-05-10T01:23:31;13.60;99.90
8778;DHT22;4425;50.872;4.712;2023-05-10T01:29:28;13.60;99.90
8778;DHT22;4425;50.872;4.712;2023-05-10T01:32:29;13.60;99.90
8778;DHT22;4425;50.872;4.712;2023-05-10T01:35:01;13.60;99.90
8778;DHT22;4425;50.872;4.712;2023-05-10T01:37:39;13.60;99.90
8778;DHT22;4425;50.872;4.712;2023-05-10T01:40:14;13.60;99.90
8778;DHT22;4425;50.872;4.712;2023-05-10T01:42:49;13.60;99.90
8778;DHT22;4425;50.872;4.712;2023-05-10T01:45:24;13.60;99.90
8778;DHT22;4425;50.872;4.712;2023-05-10T01:48:02;13.60;99.90
8778;DHT22;4425;50.872;4.712;2023-05-10T01:50:32;13.60;99.90
8778;DHT22;4425;50.872;4.712;2023-05-10T01:53:00;13.60;99.90
8778;DHT22;4425;50.872;4.712;2023-05-10T01:55:32;13.50;99.90
8778;DHT22;4425;50.872;4.712;2023-05-10T01:58:05;13.50;99.90
8778;DHT22;4425;50.872;4.712;2023-05-10T02:00:34;13.50;99.90
8778;DHT22;4425;50.872;4.712;2023-05-10T02:03:06;13.50;99.90
8778;DHT22;4425;50.872;4.712;2023-05-10T02:05:34;13.50;99.90
8778;DHT22;4425;50.872;4.712;2023-05-10T02:08:05;13.60;99.90
8778;DHT22;4425;50.872;4.712;2023-05-10T02:10:34;13.60;99.90
8778;DHT22;4425;50.872;4.712;2023-05-10T02:13:03;13.60;99.90
8778;DHT22;4425;50.872;4.712;2023-05-10T02:15:32;13.50;99.90
8778;DHT22;4425;50.872;4.712;2023-05-10T02:18:00;13.50;99.90
8778;DHT22;4425;50.872;4.712;2023-05-10T02:20:31;13.50;99.90
8778;DHT22;4425;50.872;4.712;2023-05-10T02:23:01;13.50;99.90
8778;DHT22;4425;50.872;4.712;2023-05-10T02:25:30;13.50;99.90
8778;DHT22;4425;50.872;4.712;2023-05-10T02:28:01;13.50;99.90
8778;DHT22;4425;50.872;4.712;2023-05-10T02:30:29;13.50;99.90
8778;DHT22;4425;50.872;4.712;2023-05-10T02:32:58;13.50;99.90
8778;DHT22;4425;50.872;4.712;2023-05-10T02:35:30;13.60;99.90
8778;DHT22;4425;50.872;4.712;2023-05-10T02:37:59;13.60;99.90
8778;DHT22;4425;50.872;4.712;2023-05-10T02:40:29;13.70;99.90
8778;DHT22;4425;50.872;4.712;2023-05-10T02:42:57;13.70;99.90
8778;DHT22;4425;50.872;4.712;2023-05-10T02:45:30;13.70;99.90
8778;DHT22;4425;50.872;4.712;2023-05-10T02:47:58;13.70;99.90
8778;DHT22;4425;50.872;4.712;2023-05-10T02:50:27;13.60;99.90
8778;DHT22;4425;50.872;4.712;2023-05-10T02:53:01;13.60;99.90
8778;DHT22;4425;50.872;4.712;2023-05-10T02:55:33;13.60;99.90
8778;DHT22;4425;50.872;4.712;2023-05-10T02:58:08;13.60;99.90
8778;DHT22;4425;50.872;4.712;2023-05-10T03:00:36;13.60;99.90
8778;DHT22;4425;50.872;4.712;2023-05-10T03:03:03;13.60;99.90
8778;DHT22;4425;50.872;4.712;2023-05-10T03:05:31;13.50;99.90
8778;DHT22;4425;50.872;4.712;2023-05-10T03:08:10;13.60;99.90
8778;DHT22;4425;50.872;4.712;2023-05-10T03:10:47;13.60;99.90
8778;DHT22;4425;50.872;4.712;2023-05-10T03:13:25;13.60;99.90
8778;DHT22;4425;50.872;4.712;2023-05-10T03:15:59;13.60;99.90
8778;DHT22;4425;50.872;4.712;2023-05-10T03:18:36;13.60;99.90
8778;DHT22;4425;50.872;4.712;2023-05-10T03:21:07;13.60;99.90
8778;DHT22;4425;50.872;4.712;2023-05-10T03:23:44;13.60;99.90
8778;DHT22;4425;50.872;4.712;2023-05-10T03:26:15;13.60;99.90
8778;DHT22;4425;50.872;4.712;2023-05-10T03:28:48;13.60;99.90
8778;DHT22;4425;50.872;4.712;2023-05-10T03:31:17;13.60;99.90
8778;DHT22;4425;50.872;4.712;2023-05-10T03:33:49;13.60;99.90
8778;DHT22;4425;50.872;4.712;2023-05-10T03:36:17;13.60;99.90
8778;DHT22;4425;50.872;4.712;2023-05-10T03:38:45;13.60;99.90
8778;DHT22;4425;50.872;4.712;2023-05-10T03:41:13;13.60;99.90
8778;DHT22;4425;50.872;4.712;2023-05-10T03:43:40;13.60;99.90
8778;DHT22;4425;50.872;4.712;2023-05-10T03:46:09;13.60;99.90
8778;DHT22;4425;50.872;4.712;2023-05-10T03:48:36;13.50;99.90
8778;DHT22;4425;50.872;4.712;2023-05-10T03:51:03;13.50;99.90
8778;DHT22;4425;50.872;4.712;2023-05-10T03:53:31;13.50;99.90
8778;DHT22;4425;50.872;4.712;2023-05-10T03:56:01;13.40;99.90
8778;DHT22;4425;50.872;4.712;2023-05-10T03:58:31;13.40;99.90
8778;DHT22;4425;50.872;4.712;2023-05-10T04:00:58;13.40;99.90
8778;DHT22;4425;50.872;4.712;2023-05-10T04:03:28;13.30;99.90
8778;DHT22;4425;50.872;4.712;2023-05-10T04:06:00;13.30;99.90
8778;DHT22;4425;50.872;4.712;2023-05-10T04:08:30;13.30;99.90
8778;DHT22;4425;50.872;4.712;2023-05-10T04:11:06;13.20;99.90
8778;DHT22;4425;50.872;4.712;2023-05-10T04:13:34;13.20;99.90
8778;DHT22;4425;50.872;4.712;2023-05-10T04:16:05;13.20;99.90
8778;DHT22;4425;50.872;4.712;2023-05-10T04:18:33;13.20;99.90
8778;DHT22;4425;50.872;4.712;2023-05-10T04:21:03;13.20;99.90
8778;DHT22;4425;50.872;4.712;2023-05-10T04:23:30;13.10;99.90
8778;DHT22;4425;50.872;4.712;2023-05-10T04:26:00;13.10;99.90
8778;DHT22;4425;50.872;4.712;2023-05-10T04:28:32;13.10;99.90
8778;DHT22;4425;50.872;4.712;2023-05-10T04:31:02;13.10;99.90
8778;DHT22;4425;50.872;4.712;2023-05-10T04:33:31;13.10;99.90
8778;DHT22;4425;50.872;4.712;2023-05-10T04:36:01;13.10;99.90
8778;DHT22;4425;50.872;4.712;2023-05-10T04:38:29;13.10;99.90
8778;DHT22;4425;50.872;4.712;2023-05-10T04:41:04;13.20;99.90
8778;DHT22;4425;50.872;4.712;2023-05-10T04:43:33;13.20;99.90
8778;DHT22;4425;50.872;4.712;2023-05-10T04:46:00;13.20;99.90
8778;DHT22;4425;50.872;4.712;2023-05-10T04:48:28;13.20;99.90
8778;DHT22;4425;50.872;4.712;2023-05-10T04:50:56;13.20;99.90
8778;DHT22;4425;50.872;4.712;2023-05-10T04:53:24;13.30;99.90
8778;DHT22;4425;50.872;4.712;2023-05-10T04:55:52;13.30;99.90
8778;DHT22;4425;50.872;4.712;2023-05-10T04:58:20;13.30;99.90
8778;DHT22;4425;50.872;4.712;2023-05-10T05:00:49;13.30;99.90
8778;DHT22;4425;50.872;4.712;2023-05-10T05:03:20;13.30;99.90
8778;DHT22;4425;50.872;4.712;2023-05-10T05:05:47;13.30;99.90
8778;DHT22;4425;50.872;4.712;2023-05-10T05:08:15;13.30;99.90
8778;DHT22;4425;50.872;4.712;2023-05-10T05:10:42;13.40;99.90
8778;DHT22;4425;50.872;4.712;2023-05-10T05:13:09;13.40;99.90
8778;DHT22;4425;50.872;4.712;2023-05-10T05:15:37;13.30;99.90
8778;DHT22;4425;50.872;4.712;2023-05-10T05:18:06;13.30;99.90
8778;DHT22;4425;50.872;4.712;2023-05-10T05:20:35;13.40;99.90
8778;DHT22;4425;50.872;4.712;2023-05-10T05:23:03;13.40;99.90
8778;DHT22;4425;50.872;4.712;2023-05-10T05:25:31;13.40;99.90
8778;DHT22;4425;50.872;4.712;2023-05-10T05:27:59;13.40;99.90
8778;DHT22;4425;50.872;4.712;2023-05-10T05:30:28;13.30;99.90
8778;DHT22;4425;50.872;4.712;2023-05-10T05:32:58;13.40;99.90
8778;DHT22;4425;50.872;4.712;2023-05-10T05:35:27;13.40;99.90
8778;DHT22;4425;50.872;4.712;2023-05-10T05:37:56;13.50;99.90
8778;DHT22;4425;50.872;4.712;2023-05-10T05:40:24;13.50;99.90
8778;DHT22;4425;50.872;4.712;2023-05-10T05:42:52;13.50;99.90
8778;DHT22;4425;50.872;4.712;2023-05-10T05:45:20;13.50;99.90
8778;DHT22;4425;50.872;4.712;2023-05-10T05:47:47;13.50;99.90
8778;DHT22;4425;50.872;4.712;2023-05-10T05:50:14;13.50;99.90
8778;DHT22;4425;50.872;4.712;2023-05-10T05:52:43;13.40;99.90
8778;DHT22;4425;50.872;4.712;2023-05-10T05:55:10;13.60;99.90
8778;DHT22;4425;50.872;4.712;2023-05-10T05:57:38;13.50;99.90
8778;DHT22;4425;50.872;4.712;2023-05-10T06:00:06;13.50;99.90
8778;DHT22;4425;50.872;4.712;2023-05-10T06:02:34;13.60;99.90
8778;DHT22;4425;50.872;4.712;2023-05-10T06:05:02;13.60;99.90
8778;DHT22;4425;50.872;4.712;2023-05-10T06:07:32;13.60;99.90
8778;DHT22;4425;50.872;4.712;2023-05-10T06:10:06;13.60;99.90
8778;DHT22;4425;50.872;4.712;2023-05-10T06:12:35;13.60;99.90
8778;DHT22;4425;50.872;4.712;2023-05-10T06:15:02;13.60;99.90
8778;DHT22;4425;50.872;4.712;2023-05-10T06:17:33;13.70;99.90
8778;DHT22;4425;50.872;4.712;2023-05-10T06:20:02;13.70;99.90
8778;DHT22;4425;50.872;4.712;2023-05-10T06:22:31;13.80;99.90
8778;DHT22;4425;50.872;4.712;2023-05-10T06:24:58;13.90;99.90
8778;DHT22;4425;50.872;4.712;2023-05-10T06:27:27;14.00;99.90
8778;DHT22;4425;50.872;4.712;2023-05-10T06:29:54;14.00;99.90
8778;DHT22;4425;50.872;4.712;2023-05-10T06:32:25;14.10;99.90
8778;DHT22;4425;50.872;4.712;2023-05-10T06:34:53;14.20;99.90
8778;DHT22;4425;50.872;4.712;2023-05-10T06:37:21;14.20;99.90
8778;DHT22;4425;50.872;4.712;2023-05-10T06:39:48;14.20;99.90
8778;DHT22;4425;50.872;4.712;2023-05-10T06:42:15;14.30;99.90
8778;DHT22;4425;50.872;4.712;2023-05-10T06:44:46;14.30;99.90
8778;DHT22;4425;50.872;4.712;2023-05-10T06:47:14;14.30;99.90
8778;DHT22;4425;50.872;4.712;2023-05-10T06:49:44;14.40;99.90
8778;DHT22;4425;50.872;4.712;2023-05-10T06:52:15;14.40;99.90
8778;DHT22;4425;50.872;4.712;2023-05-10T06:54:46;14.50;99.90
8778;DHT22;4425;50.872;4.712;2023-05-10T06:57:19;14.60;99.90
8778;DHT22;4425;50.872;4.712;2023-05-10T06:59:53;14.60;99.90
8778;DHT22;4425;50.872;4.712;2023-05-10T07:02:21;14.40;99.90
8778;DHT22;4425;50.872;4.712;2023-05-10T07:04:49;14.30;99.90
8778;DHT22;4425;50.872;4.712;2023-05-10T07:07:18;14.30;99.90
8778;DHT22;4425;50.872;4.712;2023-05-10T07:09:48;14.30;99.90
8778;DHT22;4425;50.872;4.712;2023-05-10T07:12:17;14.40;99.90
8778;DHT22;4425;50.872;4.712;2023-05-10T07:14:48;14.40;99.90
8778;DHT22;4425;50.872;4.712;2023-05-10T07:17:20;14.60;99.90
8778;DHT22;4425;50.872;4.712;2023-05-10T07:19:53;15.10;99.90
8778;DHT22;4425;50.872;4.712;2023-05-10T07:22:21;15.20;99.90
8778;DHT22;4425;50.872;4.712;2023-05-10T07:24:50;15.30;99.90
8778;DHT22;4425;50.872;4.712;2023-05-10T07:27:20;15.20;99.90
8778;DHT22;4425;50.872;4.712;2023-05-10T07:29:48;15.20;99.90
8778;DHT22;4425;50.872;4.712;2023-05-10T07:32:15;14.90;99.90
8778;DHT22;4425;50.872;4.712;2023-05-10T07:35:01;14.90;99.90
8778;DHT22;4425;50.872;4.712;2023-05-10T07:37:35;14.70;99.90
8778;DHT22;4425;50.872;4.712;2023-05-10T07:40:03;14.70;99.90
8778;DHT22;4425;50.872;4.712;2023-05-10T07:42:30;14.60;99.90
8778;DHT22;4425;50.872;4.712;2023-05-10T07:45:01;14.60;99.90
8778;DHT22;4425;50.872;4.712;2023-05-10T07:47:30;14.30;99.90
8778;DHT22;4425;50.872;4.712;2023-05-10T07:50:01;14.30;99.90
8778;DHT22;4425;50.872;4.712;2023-05-10T07:52:29;14.10;99.90
8778;DHT22;4425;50.872;4.712;2023-05-10T07:55:00;14.10;99.90
8778;DHT22;4425;50.872;4.712;2023-05-10T07:57:27;14.10;99.90
8778;DHT22;4425;50.872;4.712;2023-05-10T07:59:57;14.20;99.90
8778;DHT22;4425;50.872;4.712;2023-05-10T08:02:26;14.10;99.90
8778;DHT22;4425;50.872;4.712;2023-05-10T08:04:53;14.10;99.90
8778;DHT22;4425;50.872;4.712;2023-05-10T08:07:24;14.00;99.90
8778;DHT22;4425;50.872;4.712;2023-05-10T08:09:55;14.00;99.90
8778;DHT22;4425;50.872;4.712;2023-05-10T08:12:22;14.00;99.90
8778;DHT22;4425;50.872;4.712;2023-05-10T08:14:50;13.90;99.90
8778;DHT22;4425;50.872;4.712;2023-05-10T08:17:18;13.90;99.90
8778;DHT22;4425;50.872;4.712;2023-05-10T08:19:46;13.70;99.90
8778;DHT22;4425;50.872;4.712;2023-05-10T08:22:14;13.60;99.90
8778;DHT22;4425;50.872;4.712;2023-05-10T08:24:47;13.60;99.90
8778;DHT22;4425;50.872;4.712;2023-05-10T08:27:16;13.60;99.90
8778;DHT22;4425;50.872;4.712;2023-05-10T08:29:43;13.60;99.90
8778;DHT22;4425;50.872;4.712;2023-05-10T08:32:16;13.70;99.90
8778;DHT22;4425;50.872;4.712;2023-05-10T08:34:44;13.80;99.90
8778;DHT22;4425;50.872;4.712;2023-05-10T08:37:13;13.80;99.90
8778;DHT22;4425;50.872;4.712;2023-05-10T08:39:47;13.80;99.90
8778;DHT22;4425;50.872;4.712;2023-05-10T08:42:19;13.80;99.90
8778;DHT22;4425;50.872;4.712;2023-05-10T08:44:49;13.80;99.90
8778;DHT22;4425;50.872;4.712;2023-05-10T08:47:18;14.00;99.90
8778;DHT22;4425;50.872;4.712;2023-05-10T08:49:47;14.00;99.90
8778;DHT22;4425;50.872;4.712;2023-05-10T08:52:18;14.00;99.90
8778;DHT22;4425;50.872;4.712;2023-05-10T08:54:55;13.90;99.90
8778;DHT22;4425;50.872;4.712;2023-05-10T08:57:22;14.00;99.90
8778;DHT22;4425;50.872;4.712;2023-05-10T08:59:50;14.00;99.90
8778;DHT22;4425;50.872;4.712;2023-05-10T09:02:28;13.90;99.90
8778;DHT22;4425;50.872;4.712;2023-05-10T09:04:57;13.90;99.90
8778;DHT22;4425;50.872;4.712;2023-05-10T09:07:30;14.00;99.90
8778;DHT22;4425;50.872;4.712;2023-05-10T09:10:05;14.00;99.90
8778;DHT22;4425;50.872;4.712;2023-05-10T09:12:33;14.00;99.90
8778;DHT22;4425;50.872;4.712;2023-05-10T09:15:07;14.00;99.90
8778;DHT22;4425;50.872;4.712;2023-05-10T09:17:42;14.10;99.90
8778;DHT22;4425;50.872;4.712;2023-05-10T09:20:12;14.20;99.90
8778;DHT22;4425;50.872;4.712;2023-05-10T09:22:53;14.10;99.90
8778;DHT22;4425;50.872;4.712;2023-05-10T09:25:24;14.20;99.90
8778;DHT22;4425;50.872;4.712;2023-05-10T09:27:53;14.00;99.90
8778;DHT22;4425;50.872;4.712;2023-05-10T09:30:27;14.10;99.90
8778;DHT22;4425;50.872;4.712;2023-05-10T09:32:55;14.20;99.90
8778;DHT22;4425;50.872;4.712;2023-05-10T09:35:24;14.30;99.90
8778;DHT22;4425;50.872;4.712;2023-05-10T09:37:53;14.30;99.90
8778;DHT22;4425;50.872;4.712;2023-05-10T09:40:25;14.30;99.90
8778;DHT22;4425;50.872;4.712;2023-05-10T09:42:56;14.40;99.90
8778;DHT22;4425;50.872;4.712;2023-05-10T09:45:25;14.30;99.90
8778;DHT22;4425;50.872;4.712;2023-05-10T09:47:54;14.30;99.90
8778;DHT22;4425;50.872;4.712;2023-05-10T09:50:24;14.40;99.90
8778;DHT22;4425;50.872;4.712;2023-05-10T09:53:06;14.50;99.90
8778;DHT22;4425;50.872;4.712;2023-05-10T09:55:48;14.60;99.90
8778;DHT22;4425;50.872;4.712;2023-05-10T09:58:16;14.60;99.90
8778;DHT22;4425;50.872;4.712;2023-05-10T10:00:48;14.70;99.90
8778;DHT22;4425;50.872;4.712;2023-05-10T10:03:20;14.60;99.90
8778;DHT22;4425;50.872;4.712;2023-05-10T10:05:53;14.70;99.90
8778;DHT22;4425;50.872;4.712;2023-05-10T10:08:34;14.70;99.90
8778;DHT22;4425;50.872;4.712;2023-05-10T10:11:06;14.80;99.90
8778;DHT22;4425;50.872;4.712;2023-05-10T10:13:33;14.80;99.90
8778;DHT22;4425;50.872;4.712;2023-05-10T10:16:02;14.70;99.90
8778;DHT22;4425;50.872;4.712;2023-05-10T10:18:30;14.60;99.90
8778;DHT22;4425;50.872;4.712;2023-05-10T10:21:01;14.70;99.90
8778;DHT22;4425;50.872;4.712;2023-05-10T10:23:29;14.80;99.90
8778;DHT22;4425;50.872;4.712;2023-05-10T10:26:11;14.70;99.90
8778;DHT22;4425;50.872;4.712;2023-05-10T10:28:43;14.70;99.90
8778;DHT22;4425;50.872;4.712;2023-05-10T10:31:38;14.80;99.90
8778;DHT22;4425;50.872;4.712;2023-05-10T10:34:09;14.90;99.90
8778;DHT22;4425;50.872;4.712;2023-05-10T10:36:44;14.90;99.90
8778;DHT22;4425;50.872;4.712;2023-05-10T10:39:14;15.00;99.90
8778;DHT22;4425;50.872;4.712;2023-05-10T10:48:24;15.20;99.90
8778;DHT22;4425;50.872;4.712;2023-05-10T10:51:07;15.20;99.90
8778;DHT22;4425;50.872;4.712;2023-05-10T10:53:49;15.20;99.90
8778;DHT22;4425;50.872;4.712;2023-05-10T10:56:30;15.20;99.90
8778;DHT22;4425;50.872;4.712;2023-05-10T10:59:11;15.10;99.90
8778;DHT22;4425;50.872;4.712;2023-05-10T11:01:51;15.30;99.90
8778;DHT22;4425;50.872;4.712;2023-05-10T11:04:24;15.50;99.90
8778;DHT22;4425;50.872;4.712;2023-05-10T11:09:39;15.80;99.90
8778;DHT22;4425;50.872;4.712;2023-05-10T11:12:10;15.90;99.90
8778;DHT22;4425;50.872;4.712;2023-05-10T11:14:40;15.90;99.90
8778;DHT22;4425;50.872;4.712;2023-05-10T11:17:31;16.10;99.90
8778;DHT22;4425;50.872;4.712;2023-05-10T11:20:14;16.10;99.90
8778;DHT22;4425;50.872;4.712;2023-05-10T11:22:53;16.30;99.90
8778;DHT22;4425;50.872;4.712;2023-05-10T11:25:27;16.60;99.90
8778;DHT22;4425;50.872;4.712;2023-05-10T11:27:56;16.60;99.90
8778;DHT22;4425;50.872;4.712;2023-05-10T11:30:25;16.60;99.90
8778;DHT22;4425;50.872;4.712;2023-05-10T11:33:08;16.80;99.90
8778;DHT22;4425;50.872;4.712;2023-05-10T11:39:13;17.20;99.90
8778;DHT22;4425;50.872;4.712;2023-05-10T11:41:50;17.50;99.90
8778;DHT22;4425;50.872;4.712;2023-05-10T11:44:18;17.60;99.90
8778;DHT22;4425;50.872;4.712;2023-05-10T11:46:49;17.40;99.90
8778;DHT22;4425;50.872;4.712;2023-05-10T11:49:18;17.30;99.90
8778;DHT22;4425;50.872;4.712;2023-05-10T11:52:08;17.30;99.90
8778;DHT22;4425;50.872;4.712;2023-05-10T11:54:55;17.50;99.90
8778;DHT22;4425;50.872;4.712;2023-05-10T11:57:28;17.70;99.90
8778;DHT22;4425;50.872;4.712;2023-05-10T12:00:02;18.10;99.90
8778;DHT22;4425;50.872;4.712;2023-05-10T12:02:36;18.10;99.90
8778;DHT22;4425;50.872;4.712;2023-05-10T12:05:06;18.10;99.90
8778;DHT22;4425;50.872;4.712;2023-05-10T12:07:37;18.20;99.90
8778;DHT22;4425;50.872;4.712;2023-05-10T12:13:21;18.00;99.90
8778;DHT22;4425;50.872;4.712;2023-05-10T12:15:48;18.10;99.90
8778;DHT22;4425;50.872;4.712;2023-05-10T12:18:23;18.20;99.90
8778;DHT22;4425;50.872;4.712;2023-05-10T12:21:04;18.40;99.90
8778;DHT22;4425;50.872;4.712;2023-05-10T12:23:46;18.50;99.90
8778;DHT22;4425;50.872;4.712;2023-05-10T12:26:15;18.50;99.90
8778;DHT22;4425;50.872;4.712;2023-05-10T12:28:52;18.50;99.90
8778;DHT22;4425;50.872;4.712;2023-05-10T12:31:23;18.60;99.90
8778;DHT22;4425;50.872;4.712;2023-05-10T12:33:51;18.70;99.90
8778;DHT22;4425;50.872;4.712;2023-05-10T12:36:24;18.60;99.90
8778;DHT22;4425;50.872;4.712;2023-05-10T12:39:02;18.60;99.90
8778;DHT22;4425;50.872;4.712;2023-05-10T12:41:31;18.30;99.90
8778;DHT22;4425;50.872;4.712;2023-05-10T12:44:22;18.00;99.90
8778;DHT22;4425;50.872;4.712;2023-05-10T12:46:51;18.00;99.90
8778;DHT22;4425;50.872;4.712;2023-05-10T12:49:22;18.20;99.90
8778;DHT22;4425;50.872;4.712;2023-05-10T12:51:53;18.30;99.90
8778;DHT22;4425;50.872;4.712;2023-05-10T12:54:36;18.20;99.90
8778;DHT22;4425;50.872;4.712;2023-05-10T12:57:05;17.80;99.90
8778;DHT22;4425;50.872;4.712;2023-05-10T13:03:21;17.90;99.90
8778;DHT22;4425;50.872;4.712;2023-05-10T13:05:49;18.00;99.90
8778;DHT22;4425;50.872;4.712;2023-05-10T13:08:17;18.00;99.90
8778;DHT22;4425;50.872;4.712;2023-05-10T13:10:45;17.90;99.90
8778;DHT22;4425;50.872;4.712;2023-05-10T13:13:17;17.90;99.90
8778;DHT22;4425;50.872;4.712;2023-05-10T13:15:50;18.10;99.90
8778;DHT22;4425;50.872;4.712;2023-05-10T13:18:31;18.20;99.90
8778;DHT22;4425;50.872;4.712;2023-05-10T13:20:59;18.20;99.90
8778;DHT22;4425;50.872;4.712;2023-05-10T13:23:28;18.20;99.90
8778;DHT22;4425;50.872;4.712;2023-05-10T13:26:09;18.20;99.90
8778;DHT22;4425;50.872;4.712;2023-05-10T13:28:52;17.90;99.90
8778;DHT22;4425;50.872;4.712;2023-05-10T13:31:22;17.90;99.90
8778;DHT22;4425;50.872;4.712;2023-05-10T13:34:07;17.80;99.90
8778;DHT22;4425;50.872;4.712;2023-05-10T13:36:38;17.70;99.90
8778;DHT22;4425;50.872;4.712;2023-05-10T13:39:10;17.70;99.90
8778;DHT22;4425;50.872;4.712;2023-05-10T13:41:39;17.80;99.90
8778;DHT22;4425;50.872;4.712;2023-05-10T13:44:07;17.80;99.90
8778;DHT22;4425;50.872;4.712;2023-05-10T13:46:36;17.80;99.90
8778;DHT22;4425;50.872;4.712;2023-05-10T13:49:27;17.80;99.90
8778;DHT22;4425;50.872;4.712;2023-05-10T13:51:55;17.70;99.90
8778;DHT22;4425;50.872;4.712;2023-05-10T13:54:31;17.50;99.90
8778;DHT22;4425;50.872;4.712;2023-05-10T13:57:02;17.50;99.90
8778;DHT22;4425;50.872;4.712;2023-05-10T13:59:40;17.60;99.90
8778;DHT22;4425;50.872;4.712;2023-05-10T14:02:12;17.50;99.90
8778;DHT22;4425;50.872;4.712;2023-05-10T14:04:48;17.30;99.90
8778;DHT22;4425;50.872;4.712;2023-05-10T14:07:30;17.30;99.90
8778;DHT22;4425;50.872;4.712;2023-05-10T14:10:09;17.40;99.90
8778;DHT22;4425;50.872;4.712;2023-05-10T14:12:38;17.50;99.90
8778;DHT22;4425;50.872;4.712;2023-05-10T14:15:12;17.70;99.90
8778;DHT22;4425;50.872;4.712;2023-05-10T14:17:51;17.90;99.90
8778;DHT22;4425;50.872;4.712;2023-05-10T14:20:35;18.00;99.90
8778;DHT22;4425;50.872;4.712;2023-05-10T14:23:02;18.10;99.90
8778;DHT22;4425;50.872;4.712;2023-05-10T14:25:33;18.20;99.90
8778;DHT22;4425;50.872;4.712;2023-05-10T14:28:07;18.40;99.90
8778;DHT22;4425;50.872;4.712;2023-05-10T14:30:36;18.50;99.90
8778;DHT22;4425;50.872;4.712;2023-05-10T14:33:06;18.40;99.90
8778;DHT22;4425;50.872;4.712;2023-05-10T14:35:47;18.40;99.90
8778;DHT22;4425;50.872;4.712;2023-05-10T14:38:15;18.40;99.90
8778;DHT22;4425;50.872;4.712;2023-05-10T14:40:43;18.60;99.90
8778;DHT22;4425;50.872;4.712;2023-05-10T14:43:12;18.80;99.90
8778;DHT22;4425;50.872;4.712;2023-05-10T14:45:58;18.90;99.90
8778;DHT22;4425;50.872;4.712;2023-05-10T14:48:31;18.80;99.90
8778;DHT22;4425;50.872;4.712;2023-05-10T14:51:10;18.70;99.90
8778;DHT22;4425;50.872;4.712;2023-05-10T14:53:51;18.50;99.90
8778;DHT22;4425;50.872;4.712;2023-05-10T14:56:22;18.50;99.90
8778;DHT22;4425;50.872;4.712;2023-05-10T14:59:09;18.60;99.90
8778;DHT22;4425;50.872;4.712;2023-05-10T15:01:40;18.70;99.90
8778;DHT22;4425;50.872;4.712;2023-05-10T15:04:16;18.60;99.90
8778;DHT22;4425;50.872;4.712;2023-05-10T15:06:48;18.60;99.90
8778;DHT22;4425;50.872;4.712;2023-05-10T15:09:29;18.60;99.90
8778;DHT22;4425;50.872;4.712;2023-05-10T15:12:12;18.60;99.90
8778;DHT22;4425;50.872;4.712;2023-05-10T15:14:45;18.40;99.90
8778;DHT22;4425;50.872;4.712;2023-05-10T15:17:16;18.30;99.90
8778;DHT22;4425;50.872;4.712;2023-05-10T15:19:53;18.40;99.90
8778;DHT22;4425;50.872;4.712;2023-05-10T15:22:39;18.30;99.90
8778;DHT22;4425;50.872;4.712;2023-05-10T15:25:09;18.10;99.90
8778;DHT22;4425;50.872;4.712;2023-05-10T15:27:50;18.10;99.90
8778;DHT22;4425;50.872;4.712;2023-05-10T15:30:20;18.10;99.90
8778;DHT22;4425;50.872;4.712;2023-05-10T15:32:52;18.10;99.90
8778;DHT22;4425;50.872;4.712;2023-05-10T15:35:36;18.20;99.90
8778;DHT22;4425;50.872;4.712;2023-05-10T15:38:26;18.20;99.90
8778;DHT22;4425;50.872;4.712;2023-05-10T15:41:07;18.30;99.90
8778;DHT22;4425;50.872;4.712;2023-05-10T15:43:41;18.20;99.90
8778;DHT22;4425;50.872;4.712;2023-05-10T15:46:24;18.30;99.90
8778;DHT22;4425;50.872;4.712;2023-05-10T15:49:10;18.00;99.90
8778;DHT22;4425;50.872;4.712;2023-05-10T15:51:53;17.60;99.90
8778;DHT22;4425;50.872;4.712;2023-05-10T15:54:31;17.20;99.90
8778;DHT22;4425;50.872;4.712;2023-05-10T15:57:05;16.90;99.90
8778;DHT22;4425;50.872;4.712;2023-05-10T15:59:34;16.70;99.90
8778;DHT22;4425;50.872;4.712;2023-05-10T16:02:02;16.50;99.90
8778;DHT22;4425;50.872;4.712;2023-05-10T16:04:34;16.40;99.90
8778;DHT22;4425;50.872;4.712;2023-05-10T16:07:17;16.30;99.90
8778;DHT22;4425;50.872;4.712;2023-05-10T16:10:12;16.10;99.90
8778;DHT22;4425;50.872;4.712;2023-05-10T16:12:40;16.00;99.90
8778;DHT22;4425;50.872;4.712;2023-05-10T16:15:10;15.90;99.90
8778;DHT22;4425;50.872;4.712;2023-05-10T16:17:41;15.90;99.90
8778;DHT22;4425;50.872;4.712;2023-05-10T16:20:13;15.80;99.90
8778;DHT22;4425;50.872;4.712;2023-05-10T16:22:45;15.60;99.90
8778;DHT22;4425;50.872;4.712;2023-05-10T16:25:36;15.60;99.90
8778;DHT22;4425;50.872;4.712;2023-05-10T16:28:08;15.60;99.90
8778;DHT22;4425;50.872;4.712;2023-05-10T16:30:38;15.60;99.90
8778;DHT22;4425;50.872;4.712;2023-05-10T16:33:19;15.60;99.90
8778;DHT22;4425;50.872;4.712;2023-05-10T16:35:53;15.60;99.90
8778;DHT22;4425;50.872;4.712;2023-05-10T16:38:24;15.60;99.90
8778;DHT22;4425;50.872;4.712;2023-05-10T16:41:05;15.50;99.90
8778;DHT22;4425;50.872;4.712;2023-05-10T16:43:46;15.60;99.90
8778;DHT22;4425;50.872;4.712;2023-05-10T16:46:22;15.60;99.90
8778;DHT22;4425;50.872;4.712;2023-05-10T16:49:05;15.60;99.90
8778;DHT22;4425;50.872;4.712;2023-05-10T16:51:37;15.60;99.90
8778;DHT22;4425;50.872;4.712;2023-05-10T16:54:04;15.50;99.90
8778;DHT22;4425;50.872;4.712;2023-05-10T16:56:38;15.50;99.90